Flight Track Log - Related Links

Times and Time Zones

All times are in EST time to prevent confusion due to time zone crossing. See the N9050S flight status page for this flight to view local times or setup timezone preferences in your user account.


Time Position Orientation Groundspeed Altitude Reporting Facility
EST Latitude Longitude Course Direction KTS MPH feet Rate Location/Type
Tue 05:35:05 PM 38.6667 -90.6167 322° Northwest 130 150 1,200  Level Gateway (St. Louis) TRACON
Tue 05:36:05 PM 38.7000 -90.6500 322° Northwest 143 165 2,200 960 Climbing Gateway (St. Louis) TRACON
Tue 05:37:10 PM 38.7272 -90.6872 313° West 145 167 3,200 1,000 Climbing Kansas City Center
Tue 05:38:11 PM 38.7408 -90.7275 293° West 137 158 4,300 1,122 Climbing Kansas City Center
Tue 05:39:13 PM 38.7522 -90.7786 286° West 126 145 5,500 823 Climbing Kansas City Center
Tue 05:40:15 PM 38.7631 -90.8211 288° West 125 144 6,000 240 Climbing Kansas City Center
Tue 05:41:18 PM 38.7714 -90.8797 280° West 158 182 6,000  Level Kansas City Center
Tue 05:42:20 PM 38.7808 -90.9425 281° West 175 201 6,000  Level Kansas City Center
Tue 05:43:22 PM 38.7875 -91.0061 278° West 179 206 6,000  Level Kansas City Center
Tue 05:44:24 PM 38.7942 -91.0697 278° West 180 207 6,000  Level Kansas City Center
Tue 05:45:26 PM 38.8022 -91.1456 278° West 179 206 6,000  Level Kansas City Center
Tue 05:46:28 PM 38.8086 -91.2072 278° West 177 204 6,000  Level Kansas City Center
Tue 05:47:30 PM 38.8156 -91.2700 278° West 177 204 6,000  Level Kansas City Center
Tue 05:48:32 PM 38.8231 -91.3328 279° West 178 205 6,000 -48 Level Kansas City Center
Tue 05:49:34 PM 38.8292 -91.3953 277° West 178 205 5,900 -48 Descending Kansas City Center
Tue 05:50:36 PM 38.8356 -91.4575 278° West 177 204 5,900  Level Kansas City Center
Tue 05:51:38 PM 38.8444 -91.5336 279° West 179 206 5,900  Level Kansas City Center
Tue 05:52:40 PM 38.8511 -91.5958 278° West 179 206 5,900  Level Kansas City Center
Tue 05:53:42 PM 38.8564 -91.6589 276° West 178 205 5,900  Level Kansas City Center
Tue 05:54:44 PM 38.8636 -91.7189 279° West 177 204 5,900  Level Kansas City Center
Tue 05:55:46 PM 38.8717 -91.7956 278° West 179 206 5,900  Level Kansas City Center
Tue 05:56:48 PM 38.8775 -91.8578 277° West 178 205 5,900  Level Kansas City Center
Tue 05:57:50 PM 38.8839 -91.9208 277° West 177 204 5,900  Level Kansas City Center
Tue 05:58:52 PM 38.8906 -91.9842 278° West 178 205 5,900  Level Kansas City Center
Tue 05:59:55 PM 38.8964 -92.0478 277° West 179 206 5,900  Level Kansas City Center
Tue 06:00:57 PM 38.9031 -92.1103 278° West 178 205 5,900  Level Kansas City Center
Tue 06:01:59 PM 38.9114 -92.1858 278° West 178 205 5,900  Level Kansas City Center
Tue 06:03:01 PM 38.9175 -92.2494 277° West 178 205 5,900  Level Kansas City Center
Tue 06:04:03 PM 38.9236 -92.3133 277° West 179 206 5,900  Level Kansas City Center
Tue 06:05:05 PM 38.9289 -92.3756 276° West 178 205 5,900  Level Kansas City Center
Tue 06:06:07 PM 38.9358 -92.4386 278° West 178 205 5,900  Level Kansas City Center
Tue 06:07:09 PM 38.9414 -92.5014 277° West 178 205 5,900  Level Kansas City Center
Tue 06:08:11 PM 38.9478 -92.5633 278° West 176 203 5,900  Level Kansas City Center
Tue 06:09:13 PM 38.9553 -92.6386 277° West 177 204 5,900  Level Kansas City Center
Tue 06:10:15 PM 38.9614 -92.7011 277° West 176 203 5,900  Level Kansas City Center
Tue 06:11:17 PM 38.9667 -92.7628 276° West 175 201 5,900  Level Kansas City Center
Tue 06:12:19 PM 38.9725 -92.8247 277° West 175 201 5,900  Level Kansas City Center
Tue 06:13:21 PM 38.9797 -92.8869 279° West 176 203 5,900  Level Kansas City Center
Tue 06:14:23 PM 38.9844 -92.9494 276° West 176 203 5,900  Level Kansas City Center
Tue 06:15:25 PM 38.9917 -93.0244 277° West 176 203 5,900 -48 Level Kansas City Center
Tue 06:16:27 PM 38.9981 -93.0881 277° West 178 205 5,800 -48 Descending Kansas City Center
Tue 06:17:29 PM 39.0031 -93.1408 277° West 176 203 5,800  Level Kansas City Center
Tue 06:18:32 PM 39.0089 -93.2147 276° West 175 201 5,800  Level Kansas City Center
Tue 06:19:34 PM 39.0147 -93.2775 277° West 176 203 5,800  Level Kansas City Center
Tue 06:20:36 PM 39.0194 -93.3389 276° West 175 201 5,800  Level Kansas City Center
Tue 06:21:38 PM 39.0261 -93.4003 278° West 174 200 5,800  Level Kansas City Center
Tue 06:22:40 PM 39.0333 -93.4722 277° West 175 201 5,800  Level Kansas City Center
Tue 06:23:42 PM 39.0378 -93.5317 276° West 174 200 5,800  Level Kansas City Center
Tue 06:24:44 PM 39.0450 -93.5992 278° West 173 199 5,800  Level Kansas City Center
Tue 06:25:46 PM 39.0481 -93.6589 274° West 174 200 5,800  Level Kansas City Center
Tue 06:26:48 PM 39.0547 -93.7272 277° West 173 199 5,800  Level Kansas City Center
Tue 06:27:50 PM 39.0597 -93.7867 276° West 173 199 5,800  Level Kansas City Center
Tue 06:28:52 PM 39.0675 -93.8547 278° West 174 200 5,800  Level Kansas City Center
Tue 06:29:54 PM 39.0722 -93.9131 276° West 172 198 5,800  Level Kansas City Center
Tue 06:30:56 PM 39.0758 -93.9714 275° West 171 197 5,800 -97 Level Kansas City Center
Tue 06:31:58 PM 39.0797 -94.0400 274° West 172 198 5,600 -290 Descending Kansas City Center
Tue 06:33:00 PM 39.0853 -94.0994 277° West 175 201 5,200 -435 Descending Kansas City Center
Tue 06:34:02 PM 39.0919 -94.1681 277° West 173 199 4,700 -484 Descending Kansas City Center
Tue 06:35:04 PM 39.0969 -94.2269 276° West 174 200 4,200 -387 Descending Kansas City Center
Tue 06:36:06 PM 39.1017 -94.2964 275° West 174 200 3,900 -144 Descending Kansas City Center
Tue 06:37:09 PM 39.1303 -94.3450 307° West 179 206 3,900 -240 Level Kansas City Center
Tue 06:38:11 PM 39.1558 -94.4056 299° West 173 199 3,400 -484 Descending Kansas City Center
Tue 06:39:13 PM 39.1817 -94.4542 304° West 172 198 2,900 -532 Descending Kansas City Center
Tue 06:40:15 PM 39.1906 -94.5153 281° West 153 176 2,300 -435 Descending Kansas City Center
Tue 06:41:17 PM 39.1822 -94.5603 257° West 136 157 2,000 -435 Descending Kansas City Center
Tue 06:42:19 PM 39.1606 -94.5836 220° Southwest 93 107 1,400 -484 Descending Kansas City Center
Tue 06:43:21 PM 39.1364 -94.5897 191° South 89 102 1,000 -387 Descending Kansas City Center
Tue 06:45:00 PM 39.1167 -94.5833 270° West  Level FlightAware Approximate

Login

Don't have an account? Register now (free) for customized features, flight alerts, and more!